sensor_id;sensor_type;location;lat;lon;timestamp;pressure;altitude;pressure_sealevel;temperature;humidity
58973;BME280;44750;52.040;7.472;2023-11-21T00:04:39;100078.56;;;8.74;100.00
58973;BME280;44750;52.040;7.472;2023-11-21T00:09:40;100076.53;;;8.68;100.00
58973;BME280;44750;52.040;7.472;2023-11-21T00:14:40;100091.84;;;8.67;100.00
58973;BME280;44750;52.040;7.472;2023-11-21T00:19:40;100110.72;;;8.67;100.00
58973;BME280;44750;52.040;7.472;2023-11-21T00:24:40;100124.22;;;8.67;100.00
58973;BME280;44750;52.040;7.472;2023-11-21T00:29:40;100127.47;;;8.71;100.00
58973;BME280;44750;52.040;7.472;2023-11-21T00:34:41;100131.16;;;8.70;100.00
58973;BME280;44750;52.040;7.472;2023-11-21T00:39:41;100143.97;;;8.68;100.00
58973;BME280;44750;52.040;7.472;2023-11-21T00:44:41;100144.81;;;8.68;100.00
58973;BME280;44750;52.040;7.472;2023-11-21T00:49:41;100146.66;;;8.68;100.00
58973;BME280;44750;52.040;7.472;2023-11-21T00:54:41;100158.13;;;8.70;100.00
58973;BME280;44750;52.040;7.472;2023-11-21T00:59:41;100161.88;;;8.69;100.00
58973;BME280;44750;52.040;7.472;2023-11-21T01:04:41;100170.47;;;8.73;100.00
58973;BME280;44750;52.040;7.472;2023-11-21T01:09:42;100183.81;;;8.74;100.00
58973;BME280;44750;52.040;7.472;2023-11-21T01:14:42;100184.44;;;8.68;100.00
58973;BME280;44750;52.040;7.472;2023-11-21T01:19:42;100209.81;;;8.75;100.00
58973;BME280;44750;52.040;7.472;2023-11-21T01:24:42;100213.50;;;8.74;100.00
58973;BME280;44750;52.040;7.472;2023-11-21T01:29:42;100221.50;;;8.66;100.00
58973;BME280;44750;52.040;7.472;2023-11-21T01:34:42;100228.94;;;8.64;100.00
58973;BME280;44750;52.040;7.472;2023-11-21T01:39:45;100256.97;;;8.71;100.00
58973;BME280;44750;52.040;7.472;2023-11-21T01:44:45;100257.69;;;8.73;100.00
58973;BME280;44750;52.040;7.472;2023-11-21T01:49:45;100269.72;;;8.79;100.00
58973;BME280;44750;52.040;7.472;2023-11-21T01:54:46;100279.38;;;8.81;100.00
58973;BME280;44750;52.040;7.472;2023-11-21T01:59:46;100280.69;;;8.77;100.00
58973;BME280;44750;52.040;7.472;2023-11-21T02:04:48;100313.47;;;8.82;100.00
58973;BME280;44750;52.040;7.472;2023-11-21T02:09:48;100331.88;;;8.87;100.00
58973;BME280;44750;52.040;7.472;2023-11-21T02:14:48;100336.44;;;8.86;100.00
58973;BME280;44750;52.040;7.472;2023-11-21T02:19:48;100346.09;;;8.89;100.00
58973;BME280;44750;52.040;7.472;2023-11-21T02:24:49;100369.06;;;8.93;100.00
58973;BME280;44750;52.040;7.472;2023-11-21T02:29:49;100380.13;;;9.00;100.00
58973;BME280;44750;52.040;7.472;2023-11-21T02:34:49;100392.91;;;8.98;100.00
58973;BME280;44750;52.040;7.472;2023-11-21T02:39:49;100406.50;;;9.06;100.00
58973;BME280;44750;52.040;7.472;2023-11-21T02:44:49;100410.91;;;9.07;100.00
58973;BME280;44750;52.040;7.472;2023-11-21T02:49:49;100417.75;;;9.01;100.00
58973;BME280;44750;52.040;7.472;2023-11-21T02:54:50;100418.59;;;9.02;100.00
58973;BME280;44750;52.040;7.472;2023-11-21T02:59:50;100434.91;;;9.10;100.00
58973;BME280;44750;52.040;7.472;2023-11-21T03:04:50;100441.84;;;9.13;100.00
58973;BME280;44750;52.040;7.472;2023-11-21T03:09:50;100436.06;;;9.08;100.00
58973;BME280;44750;52.040;7.472;2023-11-21T03:14:50;100446.31;;;9.04;100.00
58973;BME280;44750;52.040;7.472;2023-11-21T03:19:50;100449.00;;;9.04;100.00
58973;BME280;44750;52.040;7.472;2023-11-21T03:24:50;100463.34;;;9.04;100.00
58973;BME280;44750;52.040;7.472;2023-11-21T03:29:51;100449.81;;;8.86;100.00
58973;BME280;44750;52.040;7.472;2023-11-21T03:34:54;100472.19;;;8.97;100.00
58973;BME280;44750;52.040;7.472;2023-11-21T03:39:55;100490.34;;;9.04;100.00
58973;BME280;44750;52.040;7.472;2023-11-21T03:44:55;100495.59;;;9.06;100.00
58973;BME280;44750;52.040;7.472;2023-11-21T03:49:56;100515.91;;;9.10;100.00
58973;BME280;44750;52.040;7.472;2023-11-21T03:54:56;100523.72;;;9.13;100.00
58973;BME280;44750;52.040;7.472;2023-11-21T03:59:56;100513.09;;;9.02;100.00
58973;BME280;44750;52.040;7.472;2023-11-21T04:04:56;100541.22;;;9.09;100.00
58973;BME280;44750;52.040;7.472;2023-11-21T04:09:56;100539.22;;;9.11;100.00
58973;BME280;44750;52.040;7.472;2023-11-21T04:14:56;100554.13;;;9.15;100.00
58973;BME280;44750;52.040;7.472;2023-11-21T04:19:56;100543.22;;;9.07;100.00
58973;BME280;44750;52.040;7.472;2023-11-21T04:24:56;100554.44;;;9.12;100.00
58973;BME280;44750;52.040;7.472;2023-11-21T04:29:57;100564.38;;;9.12;100.00
58973;BME280;44750;52.040;7.472;2023-11-21T04:34:57;100561.81;;;9.10;100.00
58973;BME280;44750;52.040;7.472;2023-11-21T04:39:57;100556.28;;;9.12;100.00
58973;BME280;44750;52.040;7.472;2023-11-21T04:44:57;100556.59;;;8.99;100.00
58973;BME280;44750;52.040;7.472;2023-11-21T04:49:57;100582.72;;;9.08;100.00
58973;BME280;44750;52.040;7.472;2023-11-21T04:54:57;100592.78;;;9.16;100.00
58973;BME280;44750;52.040;7.472;2023-11-21T04:59:57;100598.88;;;9.18;100.00
58973;BME280;44750;52.040;7.472;2023-11-21T05:04:58;100597.63;;;9.12;100.00
58973;BME280;44750;52.040;7.472;2023-11-21T05:09:58;100611.13;;;9.12;100.00
58973;BME280;44750;52.040;7.472;2023-11-21T05:14:58;100611.13;;;9.12;100.00
58973;BME280;44750;52.040;7.472;2023-11-21T05:19:58;100616.69;;;9.11;100.00
58973;BME280;44750;52.040;7.472;2023-11-21T05:24:58;100626.34;;;9.13;100.00
58973;BME280;44750;52.040;7.472;2023-11-21T05:29:59;100628.91;;;9.15;100.00
58973;BME280;44750;52.040;7.472;2023-11-21T05:34:59;100641.97;;;9.10;100.00
58973;BME280;44750;52.040;7.472;2023-11-21T05:39:59;100655.19;;;9.13;100.00
58973;BME280;44750;52.040;7.472;2023-11-21T05:44:59;100654.91;;;9.06;100.00
58973;BME280;44750;52.040;7.472;2023-11-21T05:49:59;100662.88;;;9.08;100.00
58973;BME280;44750;52.040;7.472;2023-11-21T05:54:59;100683.06;;;9.13;100.00
58973;BME280;44750;52.040;7.472;2023-11-21T05:59:59;100683.47;;;9.09;100.00
58973;BME280;44750;52.040;7.472;2023-11-21T06:05:00;100692.59;;;9.08;100.00
58973;BME280;44750;52.040;7.472;2023-11-21T06:10:00;100692.03;;;9.04;100.00
58973;BME280;44750;52.040;7.472;2023-11-21T06:15:00;100708.66;;;9.09;100.00
58973;BME280;44750;52.040;7.472;2023-11-21T06:20:00;100724.56;;;9.12;100.00
58973;BME280;44750;52.040;7.472;2023-11-21T06:25:00;100714.59;;;9.03;100.00
58973;BME280;44750;52.040;7.472;2023-11-21T06:30:01;100735.06;;;9.06;100.00
58973;BME280;44750;52.040;7.472;2023-11-21T06:35:01;100751.84;;;9.09;100.00
58973;BME280;44750;52.040;7.472;2023-11-21T06:40:01;100756.97;;;9.12;100.00
58973;BME280;44750;52.040;7.472;2023-11-21T06:45:02;100752.84;;;9.08;100.00
58973;BME280;44750;52.040;7.472;2023-11-21T06:50:03;100773.31;;;9.11;100.00
58973;BME280;44750;52.040;7.472;2023-11-21T06:55:03;100775.13;;;9.10;100.00
58973;BME280;44750;52.040;7.472;2023-11-21T07:00:04;100779.25;;;9.04;100.00
58973;BME280;44750;52.040;7.472;2023-11-21T07:05:04;100779.69;;;9.00;100.00
58973;BME280;44750;52.040;7.472;2023-11-21T07:10:05;100803.31;;;9.08;100.00
58973;BME280;44750;52.040;7.472;2023-11-21T07:15:05;100815.09;;;9.07;100.00
58973;BME280;44750;52.040;7.472;2023-11-21T07:20:06;100825.75;;;9.08;100.00
58973;BME280;44750;52.040;7.472;2023-11-21T07:25:06;100826.59;;;8.99;100.00
58973;BME280;44750;52.040;7.472;2023-11-21T07:30:06;100832.69;;;8.91;100.00
58973;BME280;44750;52.040;7.472;2023-11-21T07:35:07;100852.59;;;9.00;100.00
58973;BME280;44750;52.040;7.472;2023-11-21T07:40:07;100868.22;;;8.96;100.00
58973;BME280;44750;52.040;7.472;2023-11-21T07:45:07;100869.34;;;8.94;100.00
58973;BME280;44750;52.040;7.472;2023-11-21T07:50:08;100897.50;;;9.01;100.00
58973;BME280;44750;52.040;7.472;2023-11-21T07:55:08;100910.44;;;8.97;100.00
58973;BME280;44750;52.040;7.472;2023-11-21T08:00:08;100927.78;;;9.04;100.00
58973;BME280;44750;52.040;7.472;2023-11-21T08:05:09;100943.75;;;9.17;100.00
58973;BME280;44750;52.040;7.472;2023-11-21T08:10:09;100948.56;;;9.14;100.00
58973;BME280;44750;52.040;7.472;2023-11-21T08:15:09;100961.66;;;9.18;100.00
58973;BME280;44750;52.040;7.472;2023-11-21T08:20:10;100964.19;;;9.10;100.00
58973;BME280;44750;52.040;7.472;2023-11-21T08:25:10;100982.69;;;9.15;100.00
58973;BME280;44750;52.040;7.472;2023-11-21T08:30:10;101008.28;;;9.20;100.00
58973;BME280;44750;52.040;7.472;2023-11-21T08:35:14;101020.06;;;9.19;100.00
58973;BME280;44750;52.040;7.472;2023-11-21T08:40:14;101011.34;;;9.06;100.00
58973;BME280;44750;52.040;7.472;2023-11-21T08:45:14;101031.69;;;9.10;100.00
58973;BME280;44750;52.040;7.472;2023-11-21T08:50:15;101041.50;;;9.11;100.00
58973;BME280;44750;52.040;7.472;2023-11-21T08:55:15;101052.00;;;9.04;100.00
58973;BME280;44750;52.040;7.472;2023-11-21T09:00:15;101056.81;;;9.01;100.00
58973;BME280;44750;52.040;7.472;2023-11-21T09:05:15;101060.34;;;8.92;100.00
58973;BME280;44750;52.040;7.472;2023-11-21T09:10:15;101070.06;;;8.83;100.00
58973;BME280;44750;52.040;7.472;2023-11-21T09:15:15;101082.00;;;8.80;100.00
58973;BME280;44750;52.040;7.472;2023-11-21T09:20:16;101114.19;;;8.93;100.00
58973;BME280;44750;52.040;7.472;2023-11-21T09:25:16;101126.25;;;8.89;100.00
58973;BME280;44750;52.040;7.472;2023-11-21T09:30:16;101129.75;;;8.80;100.00
58973;BME280;44750;52.040;7.472;2023-11-21T09:35:16;101154.22;;;8.88;100.00
58973;BME280;44750;52.040;7.472;2023-11-21T09:40:16;101185.41;;;8.81;100.00
58973;BME280;44750;52.040;7.472;2023-11-21T09:45:27;101217.91;;;8.91;100.00
58973;BME280;44750;52.040;7.472;2023-11-21T09:50:28;101211.88;;;8.66;100.00
58973;BME280;44750;52.040;7.472;2023-11-21T09:55:28;101228.78;;;8.68;100.00
58973;BME280;44750;52.040;7.472;2023-11-21T10:00:28;101281.34;;;8.85;100.00
58973;BME280;44750;52.040;7.472;2023-11-21T10:05:30;101292.81;;;8.77;100.00
58973;BME280;44750;52.040;7.472;2023-11-21T10:10:30;101332.41;;;8.88;100.00
58973;BME280;44750;52.040;7.472;2023-11-21T10:15:32;101350.56;;;8.86;100.00
58973;BME280;44750;52.040;7.472;2023-11-21T10:20:33;101368.97;;;8.81;100.00
58973;BME280;44750;52.040;7.472;2023-11-21T10:25:33;101397.84;;;8.92;100.00
58973;BME280;44750;52.040;7.472;2023-11-21T10:30:37;101423.09;;;8.91;100.00
58973;BME280;44750;52.040;7.472;2023-11-21T10:35:44;101432.66;;;8.83;100.00
58973;BME280;44750;52.040;7.472;2023-11-21T10:40:44;101458.81;;;8.83;100.00
58973;BME280;44750;52.040;7.472;2023-11-21T10:45:44;101500.66;;;8.89;100.00
58973;BME280;44750;52.040;7.472;2023-11-21T10:50:45;101525.94;;;9.10;100.00
58973;BME280;44750;52.040;7.472;2023-11-21T10:55:45;101526.66;;;9.01;100.00
58973;BME280;44750;52.040;7.472;2023-11-21T11:00:46;101530.84;;;8.94;100.00
58973;BME280;44750;52.040;7.472;2023-11-21T11:05:46;101540.19;;;8.90;100.00
58973;BME280;44750;52.040;7.472;2023-11-21T11:10:46;101553.56;;;8.91;100.00
58973;BME280;44750;52.040;7.472;2023-11-21T11:15:50;101561.88;;;8.77;100.00
58973;BME280;44750;52.040;7.472;2023-11-21T11:20:51;101589.75;;;8.77;100.00
58973;BME280;44750;52.040;7.472;2023-11-21T11:31:05;101635.25;;;8.70;100.00
58973;BME280;44750;52.040;7.472;2023-11-21T11:36:13;101683.88;;;8.82;100.00
58973;BME280;44750;52.040;7.472;2023-11-21T11:41:25;101682.38;;;8.78;100.00
58973;BME280;44750;52.040;7.472;2023-11-21T11:46:42;101720.38;;;8.99;100.00
58973;BME280;44750;52.040;7.472;2023-11-21T11:51:43;101722.56;;;8.94;100.00
58973;BME280;44750;52.040;7.472;2023-11-21T11:56:44;101734.00;;;8.97;100.00
58973;BME280;44750;52.040;7.472;2023-11-21T12:01:45;101713.66;;;8.69;100.00
58973;BME280;44750;52.040;7.472;2023-11-21T12:06:46;101745.84;;;8.83;100.00
58973;BME280;44750;52.040;7.472;2023-11-21T12:11:46;101754.47;;;8.89;100.00
58973;BME280;44750;52.040;7.472;2023-11-21T12:16:47;101760.75;;;8.89;100.00
58973;BME280;44750;52.040;7.472;2023-11-21T12:21:47;101767.16;;;8.99;100.00
58973;BME280;44750;52.040;7.472;2023-11-21T12:26:47;101754.41;;;9.01;100.00
58973;BME280;44750;52.040;7.472;2023-11-21T12:31:48;101751.13;;;9.09;100.00
58973;BME280;44750;52.040;7.472;2023-11-21T12:36:49;101736.84;;;8.96;100.00
58973;BME280;44750;52.040;7.472;2023-11-21T12:41:49;101685.22;;;8.76;100.00
58973;BME280;44750;52.040;7.472;2023-11-21T12:46:49;101649.09;;;8.66;100.00
58973;BME280;44750;52.040;7.472;2023-11-21T12:51:50;101638.28;;;8.55;100.00
58973;BME280;44750;52.040;7.472;2023-11-21T12:56:50;101659.25;;;8.62;100.00
58973;BME280;44750;52.040;7.472;2023-11-21T13:01:50;101618.25;;;8.46;100.00
58973;BME280;44750;52.040;7.472;2023-11-21T13:06:50;101620.25;;;8.31;100.00
58973;BME280;44750;52.040;7.472;2023-11-21T13:11:50;101610.94;;;8.35;100.00
58973;BME280;44750;52.040;7.472;2023-11-21T13:16:58;101610.25;;;8.20;100.00
58973;BME280;44750;52.040;7.472;2023-11-21T13:21:59;101630.78;;;8.34;100.00
58973;BME280;44750;52.040;7.472;2023-11-21T13:27:00;101637.06;;;8.34;100.00
58973;BME280;44750;52.040;7.472;2023-11-21T13:32:00;101627.06;;;8.24;100.00
58973;BME280;44750;52.040;7.472;2023-11-21T13:37:00;101629.75;;;8.24;100.00
58973;BME280;44750;52.040;7.472;2023-11-21T13:42:00;101612.56;;;8.13;100.00
58973;BME280;44750;52.040;7.472;2023-11-21T13:47:01;101600.50;;;8.06;100.00
58973;BME280;44750;52.040;7.472;2023-11-21T13:52:01;101606.38;;;8.00;100.00
58973;BME280;44750;52.040;7.472;2023-11-21T13:57:01;101601.66;;;7.91;100.00
58973;BME280;44750;52.040;7.472;2023-11-21T14:02:01;101593.56;;;7.91;100.00
58973;BME280;44750;52.040;7.472;2023-11-21T14:07:01;101569.22;;;7.79;100.00
58973;BME280;44750;52.040;7.472;2023-11-21T14:12:02;101563.44;;;7.73;100.00
58973;BME280;44750;52.040;7.472;2023-11-21T14:17:02;101562.50;;;7.85;100.00
58973;BME280;44750;52.040;7.472;2023-11-21T14:22:02;101537.41;;;7.84;100.00
58973;BME280;44750;52.040;7.472;2023-11-21T14:27:02;101520.78;;;7.91;100.00
58973;BME280;44750;52.040;7.472;2023-11-21T14:32:03;101499.22;;;7.91;100.00
58973;BME280;44750;52.040;7.472;2023-11-21T14:37:03;101473.94;;;7.80;100.00
58973;BME280;44750;52.040;7.472;2023-11-21T14:42:03;101461.22;;;7.94;100.00
58973;BME280;44750;52.040;7.472;2023-11-21T14:47:04;101428.09;;;7.80;100.00
58973;BME280;44750;52.040;7.472;2023-11-21T14:52:04;101377.34;;;7.63;100.00
58973;BME280;44750;52.040;7.472;2023-11-21T14:57:04;101380.34;;;7.82;100.00
58973;BME280;44750;52.040;7.472;2023-11-21T15:02:04;101349.19;;;7.67;100.00
58973;BME280;44750;52.040;7.472;2023-11-21T15:07:04;101333.47;;;7.61;100.00
58973;BME280;44750;52.040;7.472;2023-11-21T15:12:05;101305.03;;;7.45;100.00
58973;BME280;44750;52.040;7.472;2023-11-21T15:17:05;101310.69;;;7.53;100.00
58973;BME280;44750;52.040;7.472;2023-11-21T15:22:05;101288.38;;;7.51;100.00
58973;BME280;44750;52.040;7.472;2023-11-21T15:27:05;101263.25;;;7.40;100.00
58973;BME280;44750;52.040;7.472;2023-11-21T15:32:06;101255.53;;;7.35;100.00
58973;BME280;44750;52.040;7.472;2023-11-21T15:37:06;101243.09;;;7.45;100.00
58973;BME280;44750;52.040;7.472;2023-11-21T15:42:07;101235.22;;;7.42;100.00
58973;BME280;44750;52.040;7.472;2023-11-21T15:47:08;101220.16;;;7.40;100.00
58973;BME280;44750;52.040;7.472;2023-11-21T15:52:09;101213.69;;;7.31;100.00
58973;BME280;44750;52.040;7.472;2023-11-21T15:57:10;101211.69;;;7.33;100.00
58973;BME280;44750;52.040;7.472;2023-11-21T16:02:10;101230.34;;;7.36;100.00
58973;BME280;44750;52.040;7.472;2023-11-21T16:07:11;101227.41;;;7.39;100.00
58973;BME280;44750;52.040;7.472;2023-11-21T16:12:11;101217.59;;;7.38;100.00
58973;BME280;44750;52.040;7.472;2023-11-21T16:17:11;101228.16;;;7.41;100.00
58973;BME280;44750;52.040;7.472;2023-11-21T16:22:11;101221.88;;;7.29;100.00
58973;BME280;44750;52.040;7.472;2023-11-21T16:27:11;101237.91;;;7.42;100.00
58973;BME280;44750;52.040;7.472;2023-11-21T16:32:11;101242.34;;;7.43;100.00
58973;BME280;44750;52.040;7.472;2023-11-21T16:37:11;101237.69;;;7.45;100.00
58973;BME280;44750;52.040;7.472;2023-11-21T16:42:12;101235.72;;;7.36;100.00
58973;BME280;44750;52.040;7.472;2023-11-21T16:47:12;101224.94;;;7.36;100.00
58973;BME280;44750;52.040;7.472;2023-11-21T16:52:12;101210.22;;;7.29;100.00
58973;BME280;44750;52.040;7.472;2023-11-21T16:57:12;101207.03;;;7.12;100.00
58973;BME280;44750;52.040;7.472;2023-11-21T17:02:12;101220.28;;;7.27;100.00
58973;BME280;44750;52.040;7.472;2023-11-21T17:07:15;101216.06;;;7.11;100.00
58973;BME280;44750;52.040;7.472;2023-11-21T17:12:15;101224.91;;;7.13;100.00
58973;BME280;44750;52.040;7.472;2023-11-21T17:17:16;101236.38;;;7.04;100.00
58973;BME280;44750;52.040;7.472;2023-11-21T17:22:16;101230.47;;;6.99;100.00
58973;BME280;44750;52.040;7.472;2023-11-21T17:27:16;101231.06;;;6.91;100.00
58973;BME280;44750;52.040;7.472;2023-11-21T17:32:16;101262.59;;;7.13;100.00
58973;BME280;44750;52.040;7.472;2023-11-21T17:37:16;101262.09;;;7.19;100.00
58973;BME280;44750;52.040;7.472;2023-11-21T17:42:16;101250.34;;;7.09;100.00
58973;BME280;44750;52.040;7.472;2023-11-21T17:47:17;101255.66;;;6.98;100.00
58973;BME280;44750;52.040;7.472;2023-11-21T17:52:17;101287.53;;;7.15;100.00
58973;BME280;44750;52.040;7.472;2023-11-21T17:57:17;101285.59;;;7.17;100.00
58973;BME280;44750;52.040;7.472;2023-11-21T18:02:17;101270.59;;;7.02;100.00
58973;BME280;44750;52.040;7.472;2023-11-21T18:07:17;101298.81;;;7.09;100.00
58973;BME280;44750;52.040;7.472;2023-11-21T18:12:17;101284.31;;;6.99;100.00
58973;BME280;44750;52.040;7.472;2023-11-21T18:17:19;101308.53;;;6.99;100.00
58973;BME280;44750;52.040;7.472;2023-11-21T18:22:20;101302.00;;;6.66;100.00
58973;BME280;44750;52.040;7.472;2023-11-21T18:27:20;101344.38;;;6.75;100.00
58973;BME280;44750;52.040;7.472;2023-11-21T18:32:20;101367.31;;;6.68;100.00
58973;BME280;44750;52.040;7.472;2023-11-21T18:37:21;101372.28;;;6.61;100.00
58973;BME280;44750;52.040;7.472;2023-11-21T18:42:21;101400.75;;;6.77;100.00
58973;BME280;44750;52.040;7.472;2023-11-21T18:47:21;101399.19;;;6.61;100.00
58973;BME280;44750;52.040;7.472;2023-11-21T18:52:21;101418.13;;;6.60;100.00
58973;BME280;44750;52.040;7.472;2023-11-21T18:57:23;101431.00;;;6.67;100.00
58973;BME280;44750;52.040;7.472;2023-11-21T19:02:23;101459.66;;;6.68;100.00
58973;BME280;44750;52.040;7.472;2023-11-21T19:07:24;101500.75;;;6.83;100.00
58973;BME280;44750;52.040;7.472;2023-11-21T19:12:24;101513.47;;;6.81;100.00
58973;BME280;44750;52.040;7.472;2023-11-21T19:17:24;101525.28;;;6.92;100.00
58973;BME280;44750;52.040;7.472;2023-11-21T19:22:24;101544.66;;;6.97;100.00
58973;BME280;44750;52.040;7.472;2023-11-21T19:27:24;101551.09;;;6.94;100.00
58973;BME280;44750;52.040;7.472;2023-11-21T19:32:25;101547.56;;;6.81;100.00
58973;BME280;44750;52.040;7.472;2023-11-21T19:37:25;101548.44;;;6.68;100.00
58973;BME280;44750;52.040;7.472;2023-11-21T19:42:25;101557.25;;;6.58;100.00
58973;BME280;44750;52.040;7.472;2023-11-21T19:47:25;101559.72;;;6.61;100.00
58973;BME280;44750;52.040;7.472;2023-11-21T19:52:25;101545.63;;;6.44;100.00
58973;BME280;44750;52.040;7.472;2023-11-21T19:57:25;101545.72;;;6.43;100.00
58973;BME280;44750;52.040;7.472;2023-11-21T20:02:25;101525.38;;;6.26;100.00
58973;BME280;44750;52.040;7.472;2023-11-21T20:07:26;101541.81;;;6.21;100.00
58973;BME280;44750;52.040;7.472;2023-11-21T20:12:26;101557.50;;;6.14;100.00
58973;BME280;44750;52.040;7.472;2023-11-21T20:17:26;101579.81;;;6.29;100.00
58973;BME280;44750;52.040;7.472;2023-11-21T20:22:26;101592.72;;;6.37;100.00
58973;BME280;44750;52.040;7.472;2023-11-21T20:27:27;101560.28;;;6.13;100.00
58973;BME280;44750;52.040;7.472;2023-11-21T20:32:27;101570.41;;;6.09;100.00
58973;BME280;44750;52.040;7.472;2023-11-21T20:37:27;101599.16;;;6.22;100.00
58973;BME280;44750;52.040;7.472;2023-11-21T20:42:27;101585.03;;;6.18;100.00
58973;BME280;44750;52.040;7.472;2023-11-21T20:47:27;101598.94;;;6.25;100.00
58973;BME280;44750;52.040;7.472;2023-11-21T20:52:27;101578.81;;;6.17;100.00
58973;BME280;44750;52.040;7.472;2023-11-21T20:57:28;101576.53;;;6.11;100.00
58973;BME280;44750;52.040;7.472;2023-11-21T21:02:28;101582.78;;;6.12;100.00
58973;BME280;44750;52.040;7.472;2023-11-21T21:07:28;101575.34;;;6.15;100.00
58973;BME280;44750;52.040;7.472;2023-11-21T21:12:28;101562.84;;;6.01;100.00
58973;BME280;44750;52.040;7.472;2023-11-21T21:17:28;101563.31;;;5.94;100.00
58973;BME280;44750;52.040;7.472;2023-11-21T21:22:28;101575.41;;;6.01;100.00
58973;BME280;44750;52.040;7.472;2023-11-21T21:27:28;101571.03;;;5.85;100.00
58973;BME280;44750;52.040;7.472;2023-11-21T21:32:29;101585.88;;;5.91;100.00
58973;BME280;44750;52.040;7.472;2023-11-21T21:37:29;101597.47;;;5.92;100.00
58973;BME280;44750;52.040;7.472;2023-11-21T21:42:29;101572.44;;;5.64;100.00
58973;BME280;44750;52.040;7.472;2023-11-21T21:47:29;101632.84;;;5.85;100.00
58973;BME280;44750;52.040;7.472;2023-11-21T21:52:33;101643.00;;;5.80;100.00
58973;BME280;44750;52.040;7.472;2023-11-21T21:57:33;101664.50;;;5.80;100.00
58973;BME280;44750;52.040;7.472;2023-11-21T22:02:33;101687.25;;;5.89;100.00
58973;BME280;44750;52.040;7.472;2023-11-21T22:07:33;101692.53;;;5.91;100.00
58973;BME280;44750;52.040;7.472;2023-11-21T22:12:34;101697.69;;;5.94;100.00
58973;BME280;44750;52.040;7.472;2023-11-21T22:17:34;101708.44;;;5.94;100.00
58973;BME280;44750;52.040;7.472;2023-11-21T22:22:34;101703.84;;;5.96;100.00
58973;BME280;44750;52.040;7.472;2023-11-21T22:27:34;101712.88;;;6.09;100.00
58973;BME280;44750;52.040;7.472;2023-11-21T22:32:34;101707.88;;;6.03;100.00
58973;BME280;44750;52.040;7.472;2023-11-21T22:37:35;101721.78;;;6.10;100.00
58973;BME280;44750;52.040;7.472;2023-11-21T22:42:35;101723.63;;;6.09;100.00
58973;BME280;44750;52.040;7.472;2023-11-21T22:47:35;101724.38;;;6.11;100.00
58973;BME280;44750;52.040;7.472;2023-11-21T22:52:35;101718.25;;;6.09;100.00
58973;BME280;44750;52.040;7.472;2023-11-21T22:57:37;101693.97;;;5.82;100.00
58973;BME280;44750;52.040;7.472;2023-11-21T23:02:37;101718.03;;;5.83;100.00
58973;BME280;44750;52.040;7.472;2023-11-21T23:07:37;101745.22;;;5.93;100.00
58973;BME280;44750;52.040;7.472;2023-11-21T23:12:37;101761.84;;;6.00;100.00
58973;BME280;44750;52.040;7.472;2023-11-21T23:17:38;101763.75;;;5.98;100.00
58973;BME280;44750;52.040;7.472;2023-11-21T23:22:38;101755.50;;;5.86;100.00
58973;BME280;44750;52.040;7.472;2023-11-21T23:27:38;101761.44;;;5.77;100.00
58973;BME280;44750;52.040;7.472;2023-11-21T23:32:38;101772.19;;;5.77;100.00
58973;BME280;44750;52.040;7.472;2023-11-21T23:37:39;101781.78;;;5.67;100.00
58973;BME280;44750;52.040;7.472;2023-11-21T23:42:40;101774.38;;;5.56;100.00
58973;BME280;44750;52.040;7.472;2023-11-21T23:47:40;101770.41;;;5.47;100.00
58973;BME280;44750;52.040;7.472;2023-11-21T23:52:40;101752.00;;;5.27;100.00
58973;BME280;44750;52.040;7.472;2023-11-21T23:57:40;101752.72;;;5.14;100.00
